createdAt,value
2022-09-16T00:01:15.041Z,517.88
2022-09-16T00:03:43.730Z,532.72
2022-09-16T00:06:28.351Z,514.03
2022-09-16T00:09:03.532Z,515.55
2022-09-16T00:11:34.575Z,516.47
2022-09-16T00:14:03.542Z,514.38
2022-09-16T00:16:32.389Z,523.90
2022-09-16T00:19:01.047Z,522.38
2022-09-16T00:21:29.947Z,516.65
2022-09-16T00:23:58.260Z,518.42
2022-09-16T00:26:26.580Z,518.55
2022-09-16T00:28:54.669Z,515.83
2022-09-16T00:31:22.854Z,522.08
2022-09-16T00:33:50.945Z,517.55
2022-09-16T00:36:20.552Z,521.10
2022-09-16T00:38:57.545Z,536.67
2022-09-16T00:41:33.337Z,521.83
2022-09-16T00:44:04.939Z,507.77
2022-09-16T00:46:38.293Z,513.75
2022-09-16T00:49:31.370Z,525.75
2022-09-16T00:52:06.014Z,511.08
2022-09-16T00:54:38.005Z,512.15
2022-09-16T00:57:08.334Z,525.10
2022-09-16T00:59:44.299Z,515.58
2022-09-16T01:02:16.872Z,506.42
2022-09-16T01:05:07.246Z,504.50
2022-09-16T01:07:55.377Z,498.77
2022-09-16T01:10:26.342Z,495.35
2022-09-16T01:13:14.910Z,500.17
2022-09-16T01:16:19.012Z,499.10
2022-09-16T01:18:47.240Z,481.42
2022-09-16T01:22:14.840Z,497.80
2022-09-16T01:24:52.276Z,491.35
2022-09-16T01:27:54.203Z,489.67
2022-09-16T01:31:25.683Z,478.75
2022-09-16T01:34:28.407Z,487.77
2022-09-16T01:37:08.862Z,483.02
2022-09-16T01:40:12.109Z,494.38
2022-09-16T01:43:19.904Z,493.77
2022-09-16T01:46:19.695Z,486.25
2022-09-16T01:48:58.887Z,487.80
2022-09-16T01:51:41.982Z,492.20
2022-09-16T01:54:40.117Z,492.55
2022-09-16T01:57:18.394Z,490.05
2022-09-16T02:00:04.061Z,490.73
2022-09-16T02:03:00.217Z,495.58
2022-09-16T02:05:39.893Z,491.80
2022-09-16T02:08:13.625Z,504.75
2022-09-16T02:10:48.028Z,487.38
2022-09-16T02:13:37.793Z,490.60
2022-09-16T02:16:11.710Z,483.20
2022-09-16T02:18:42.443Z,498.52
2022-09-16T02:21:14.705Z,517.70
2022-09-16T02:23:51.987Z,489.17
2022-09-16T02:26:26.525Z,480.00
2022-09-16T02:28:56.247Z,489.65
2022-09-16T02:31:34.117Z,493.55
2022-09-16T02:34:11.650Z,494.60
2022-09-16T02:36:41.790Z,498.25
2022-09-16T02:39:16.304Z,490.92
2022-09-16T02:41:44.356Z,494.15
2022-09-16T02:44:12.774Z,501.33
2022-09-16T02:47:13.977Z,488.35
2022-09-16T02:50:09.201Z,492.58
2022-09-16T02:53:01.797Z,482.70
2022-09-16T02:56:06.694Z,486.90
2022-09-16T02:58:35.412Z,471.33
2022-09-16T03:01:03.721Z,473.95
2022-09-16T03:03:31.914Z,501.48
2022-09-16T03:06:27.026Z,488.77
2022-09-16T03:08:59.719Z,484.90
2022-09-16T03:11:45.632Z,482.15
2022-09-16T03:14:32.480Z,474.63
2022-09-16T03:17:27.980Z,474.48
2022-09-16T03:20:30.154Z,489.88
2022-09-16T03:23:39.141Z,476.85
2022-09-16T03:26:25.392Z,476.38
2022-09-16T03:29:23.237Z,483.23
2022-09-16T03:32:08.492Z,485.05
2022-09-16T03:34:36.611Z,478.83
2022-09-16T03:37:11.066Z,484.98
2022-09-16T03:40:01.568Z,493.73
2022-09-16T03:42:33.038Z,487.23
2022-09-16T03:45:18.914Z,489.30
2022-09-16T03:47:59.165Z,490.13
2022-09-16T03:50:47.622Z,484.63
2022-09-16T03:53:28.078Z,493.83
2022-09-16T03:55:56.298Z,490.75
2022-09-16T03:58:24.423Z,491.15
2022-09-16T04:00:53.936Z,492.80
2022-09-16T04:03:22.349Z,501.02
2022-09-16T04:06:06.491Z,498.15
2022-09-16T04:08:56.074Z,513.78
2022-09-16T04:11:45.535Z,515.30
2022-09-16T04:14:29.823Z,496.27
2022-09-16T04:17:19.738Z,498.98
2022-09-16T04:19:59.898Z,487.30
2022-09-16T04:22:44.783Z,505.02
2022-09-16T04:25:32.076Z,498.55
2022-09-16T04:28:22.513Z,502.95
2022-09-16T04:31:28.797Z,491.02
2022-09-16T04:34:15.195Z,492.25
2022-09-16T04:36:49.658Z,490.15
2022-09-16T04:39:17.859Z,490.50
2022-09-16T04:41:46.116Z,494.42
2022-09-16T04:44:15.388Z,498.92
2022-09-16T04:46:43.647Z,499.23
2022-09-16T04:49:13.050Z,499.77
2022-09-16T04:51:41.065Z,502.90
2022-09-16T04:54:09.577Z,501.02
2022-09-16T04:56:38.043Z,501.20
2022-09-16T04:59:06.685Z,492.20
2022-09-16T05:01:39.017Z,500.38
2022-09-16T05:04:10.002Z,489.50
2022-09-16T05:06:41.833Z,504.63
2022-09-16T05:09:12.385Z,493.17
2022-09-16T05:11:41.733Z,489.73
2022-09-16T05:14:18.268Z,494.17
2022-09-16T05:16:46.862Z,494.35
2022-09-16T05:19:16.274Z,483.48
2022-09-16T05:21:44.725Z,501.92
2022-09-16T05:24:16.718Z,487.58
2022-09-16T05:26:45.754Z,476.13
2022-09-16T05:29:16.538Z,482.83
2022-09-16T05:31:48.687Z,478.48
2022-09-16T05:34:28.875Z,487.60
2022-09-16T05:36:57.273Z,480.13
2022-09-16T05:39:26.396Z,483.60
2022-09-16T05:41:58.204Z,479.67
2022-09-16T05:44:27.495Z,486.30
2022-09-16T05:46:56.062Z,482.15
2022-09-16T05:49:24.473Z,484.30
2022-09-16T05:51:53.132Z,480.40
2022-09-16T05:54:23.848Z,483.42
2022-09-16T05:56:52.382Z,488.30
2022-09-16T05:59:20.889Z,486.42
2022-09-16T06:01:49.146Z,492.70
2022-09-16T06:04:17.298Z,492.33
2022-09-16T06:06:47.128Z,485.95
2022-09-16T06:09:19.615Z,486.80
2022-09-16T06:11:51.974Z,485.13
2022-09-16T06:14:22.833Z,494.48
2022-09-16T06:16:50.938Z,496.58
2022-09-16T06:19:20.639Z,488.25
2022-09-16T06:21:48.764Z,486.23
2022-09-16T06:24:18.334Z,497.33
2022-09-16T06:26:47.913Z,490.17
2022-09-16T06:29:17.670Z,488.65
2022-09-16T06:31:45.938Z,502.08
2022-09-16T06:34:18.644Z,496.08
2022-09-16T06:36:47.383Z,498.42
2022-09-16T06:39:17.412Z,495.05
2022-09-16T06:41:46.290Z,509.25
2022-09-16T06:44:14.652Z,506.65
2022-09-16T06:46:44.249Z,513.60
2022-09-16T06:49:13.243Z,524.55
2022-09-16T06:51:41.520Z,516.40
2022-09-16T06:54:10.417Z,520.38
2022-09-16T06:56:39.841Z,522.78
2022-09-16T06:59:08.712Z,520.78
2022-09-16T07:01:37.388Z,537.22
2022-09-16T07:04:13.798Z,534.03
2022-09-16T07:07:08.050Z,532.67
2022-09-16T07:09:30.911Z,537.83
2022-09-16T07:11:59.511Z,536.28
2022-09-16T07:14:28.877Z,549.30
2022-09-16T07:16:57.197Z,537.47
2022-09-16T07:19:26.320Z,548.33
2022-09-16T07:21:55.115Z,549.85
2022-09-16T07:24:23.402Z,550.70
2022-09-16T07:26:51.688Z,549.17
2022-09-16T07:29:21.024Z,555.05
2022-09-16T07:31:49.325Z,543.33
2022-09-16T07:34:17.667Z,550.33
2022-09-16T07:36:48.412Z,553.03
2022-09-16T07:39:18.994Z,559.33
2022-09-16T07:41:50.959Z,553.28
2022-09-16T07:44:20.828Z,549.97
2022-09-16T07:46:51.323Z,558.92
2022-09-16T07:49:20.134Z,561.30
2022-09-16T07:51:49.175Z,557.28
2022-09-16T07:54:20.194Z,570.03
2022-09-16T07:56:48.783Z,563.30
2022-09-16T07:59:19.447Z,562.42
2022-09-16T08:01:49.832Z,566.80
2022-09-16T08:04:19.803Z,568.13
2022-09-16T08:06:48.231Z,570.83
2022-09-16T08:12:06.028Z,567.17
2022-09-16T08:14:34.579Z,580.53
2022-09-16T08:17:03.511Z,580.67
2022-09-16T08:19:31.653Z,580.30
2022-09-16T08:21:59.834Z,574.85
2022-09-16T08:24:28.560Z,582.95
2022-09-16T08:29:25.995Z,580.65
2022-09-16T08:31:54.556Z,581.78
2022-09-16T08:34:22.772Z,588.20
2022-09-16T08:36:51.137Z,585.58
2022-09-16T08:39:19.991Z,594.67
2022-09-16T08:42:05.702Z,591.67
2022-09-16T08:44:43.238Z,581.25
2022-09-16T08:47:35.117Z,590.22
2022-09-16T08:50:16.245Z,587.35
2022-09-16T08:52:45.876Z,588.17
2022-09-16T08:55:37.973Z,593.50
2022-09-16T08:58:31.673Z,596.30
2022-09-16T09:01:06.827Z,613.42
2022-09-16T09:03:41.973Z,616.75
2022-09-16T09:06:55.508Z,620.33
2022-09-16T09:09:42.616Z,606.33
2022-09-16T09:12:37.516Z,626.95
2022-09-16T09:15:30.572Z,640.45
2022-09-16T09:17:58.796Z,635.78
2022-09-16T09:21:04.519Z,650.17
2022-09-16T09:23:52.537Z,649.65
2022-09-16T09:26:39.457Z,640.97
2022-09-16T09:29:20.061Z,656.15
2022-09-16T09:32:04.199Z,656.13
2022-09-16T09:35:03.762Z,682.08
2022-09-16T09:38:12.594Z,662.70
2022-09-16T09:40:54.791Z,669.92
2022-09-16T09:43:33.798Z,667.78
2022-09-16T09:46:28.044Z,673.00
2022-09-16T09:49:18.353Z,667.20
2022-09-16T09:51:53.720Z,679.22
2022-09-16T09:54:32.503Z,686.80
2022-09-16T09:57:42.118Z,696.97
2022-09-16T10:00:18.473Z,692.25
2022-09-16T10:02:49.927Z,694.25
2022-09-16T10:05:29.335Z,705.30
2022-09-16T10:08:22.947Z,710.60
2022-09-16T10:10:55.152Z,707.53
2022-09-16T10:13:25.724Z,713.10
2022-09-16T10:16:16.408Z,730.28
2022-09-16T10:18:44.880Z,738.42
2022-09-16T10:21:16.939Z,739.50
2022-09-16T10:23:57.427Z,734.28
2022-09-16T10:26:29.185Z,747.08
2022-09-16T10:29:04.049Z,750.00
2022-09-16T10:31:41.995Z,752.97
2022-09-16T10:34:38.677Z,754.83
2022-09-16T10:37:15.177Z,761.33
2022-09-16T10:39:58.662Z,771.60
2022-09-16T10:42:29.560Z,771.30
2022-09-16T10:45:16.127Z,781.17
2022-09-16T10:47:51.489Z,794.22
2022-09-16T10:50:20.583Z,800.95
2022-09-16T10:52:49.976Z,808.90
2022-09-16T10:55:26.721Z,804.30
2022-09-16T10:58:08.534Z,802.25
2022-09-16T11:00:58.227Z,804.33
2022-09-16T11:04:02.354Z,801.33
2022-09-16T11:06:55.770Z,798.25
2022-09-16T11:09:51.265Z,808.22
2022-09-16T11:12:44.437Z,813.78
2022-09-16T11:15:57.500Z,808.00
2022-09-16T11:19:12.868Z,807.53
2022-09-16T11:21:56.948Z,816.58
2022-09-16T11:24:51.015Z,810.47
2022-09-16T11:27:28.949Z,814.78
2022-09-16T11:30:12.048Z,810.80
2022-09-16T11:33:32.848Z,818.47
2022-09-16T11:36:32.300Z,796.40
2022-09-16T11:39:00.616Z,814.63
2022-09-16T11:41:41.149Z,816.17
2022-09-16T11:44:56.862Z,817.80
2022-09-16T11:47:59.660Z,830.53
2022-09-16T11:50:30.859Z,808.67
2022-09-16T11:53:17.293Z,820.00
2022-09-16T11:55:57.849Z,816.80
2022-09-16T11:58:54.694Z,817.90
2022-09-16T12:01:26.130Z,803.63
2022-09-16T12:03:55.685Z,811.22
2022-09-16T12:06:29.124Z,817.20
2022-09-16T12:08:59.086Z,816.05
2022-09-16T12:11:36.900Z,829.67
2022-09-16T12:14:24.642Z,835.08
2022-09-16T12:17:06.105Z,832.25
2022-09-16T12:19:55.689Z,832.40
2022-09-16T12:22:42.641Z,828.83
2022-09-16T12:25:28.449Z,822.30
2022-09-16T12:28:31.613Z,832.97
2022-09-16T12:31:31.377Z,813.92
2022-09-16T12:35:02.574Z,818.22
2022-09-16T12:37:53.291Z,791.20
2022-09-16T12:40:25.914Z,805.17
2022-09-16T12:43:32.175Z,798.00
2022-09-16T12:46:06.959Z,791.10
2022-09-16T12:48:45.376Z,784.78
2022-09-16T12:51:16.906Z,790.10
2022-09-16T12:54:03.083Z,790.85
2022-09-16T12:57:15.444Z,780.60
2022-09-16T13:00:08.618Z,776.15
2022-09-16T13:02:44.345Z,791.20
2022-09-16T13:05:25.557Z,804.55
2022-09-16T13:08:04.372Z,784.65
2022-09-16T13:10:53.966Z,798.95
2022-09-16T13:13:32.561Z,791.35
2022-09-16T13:16:04.576Z,793.20
2022-09-16T13:18:44.658Z,796.90
2022-09-16T13:21:28.758Z,777.00
2022-09-16T13:24:21.816Z,785.83
2022-09-16T13:26:50.111Z,780.53
2022-09-16T13:29:45.827Z,797.53
2022-09-16T13:33:05.406Z,784.20
2022-09-16T13:35:38.455Z,787.95
2022-09-16T13:38:24.257Z,782.03
2022-09-16T13:41:01.175Z,773.58
2022-09-16T13:43:29.887Z,769.97
2022-09-16T13:46:11.410Z,765.67
2022-09-16T13:48:57.068Z,763.80
2022-09-16T13:51:25.361Z,755.28
2022-09-16T13:53:54.049Z,763.25
2022-09-16T13:56:31.195Z,762.47
2022-09-16T13:59:29.727Z,747.38
2022-09-16T14:02:03.458Z,742.70
2022-09-16T14:05:10.445Z,730.95
2022-09-16T14:08:05.365Z,719.67
2022-09-16T14:10:57.608Z,714.83
2022-09-16T14:13:42.784Z,713.60
2022-09-16T14:16:24.329Z,711.05
2022-09-16T14:19:06.250Z,697.60
2022-09-16T14:21:34.693Z,692.20
2022-09-16T14:24:19.338Z,693.97
2022-09-16T14:26:55.794Z,673.67
2022-09-16T14:29:27.240Z,674.70
2022-09-16T14:31:57.098Z,683.63
2022-09-16T14:34:34.913Z,669.20
2022-09-16T14:37:04.218Z,664.83
2022-09-16T14:39:33.122Z,653.88
2022-09-16T14:42:07.379Z,660.28
2022-09-16T14:44:40.111Z,647.45
2022-09-16T14:47:29.351Z,636.75
2022-09-16T14:50:22.929Z,630.67
2022-09-16T14:52:58.389Z,623.90
2022-09-16T14:55:36.381Z,634.53
2022-09-16T14:58:04.960Z,632.30
2022-09-16T15:01:07.592Z,650.58
2022-09-16T15:03:48.962Z,629.55
2022-09-16T15:06:23.048Z,622.40
2022-09-16T15:09:12.999Z,619.40
2022-09-16T15:11:53.806Z,608.63
2022-09-16T15:14:22.434Z,622.38
2022-09-16T15:16:57.390Z,614.35
2022-09-16T15:19:50.574Z,611.33
2022-09-16T15:22:18.965Z,604.78
2022-09-16T15:24:52.934Z,589.70
2022-09-16T15:27:29.672Z,598.50
2022-09-16T15:30:01.203Z,581.75
2022-09-16T15:32:31.834Z,585.15
2022-09-16T15:35:12.515Z,601.25
2022-09-16T15:37:41.450Z,584.50
2022-09-16T15:40:26.968Z,584.92
2022-09-16T15:43:28.005Z,573.33
2022-09-16T15:46:09.296Z,559.30
2022-09-16T15:48:45.806Z,562.97
2022-09-16T15:51:33.476Z,566.92
2022-09-16T15:54:22.208Z,555.80
2022-09-16T15:57:05.853Z,555.97
2022-09-16T16:00:10.586Z,550.45
2022-09-16T16:02:49.473Z,555.60
2022-09-16T16:05:30.190Z,549.08
2022-09-16T16:08:06.282Z,540.75
2022-09-16T16:10:40.194Z,563.80
2022-09-16T16:13:08.692Z,564.92
2022-09-16T16:15:39.539Z,550.92
2022-09-16T16:18:10.800Z,561.13
2022-09-16T16:20:40.057Z,566.13
2022-09-16T16:23:12.335Z,588.38
2022-09-16T16:25:40.642Z,588.60
2022-09-16T16:28:09.012Z,583.92
2022-09-16T16:30:36.702Z,590.28
2022-09-16T16:33:07.923Z,576.08
2022-09-16T16:35:36.146Z,584.28
2022-09-16T16:38:04.286Z,574.25
2022-09-16T16:40:32.397Z,576.13
2022-09-16T16:43:00.678Z,580.83
2022-09-16T16:45:28.491Z,577.85
2022-09-16T16:47:59.033Z,563.22
2022-09-16T16:50:37.313Z,555.58
2022-09-16T16:53:06.687Z,540.20
2022-09-16T16:55:37.535Z,557.60
2022-09-16T16:58:07.507Z,542.83
2022-09-16T17:00:35.902Z,542.83
2022-09-16T17:03:04.551Z,557.58
2022-09-16T17:05:32.872Z,538.38
2022-09-16T17:08:01.109Z,537.85
2022-09-16T17:10:29.064Z,536.67
2022-09-16T17:12:56.986Z,525.95
2022-09-16T17:15:26.097Z,525.03
2022-09-16T17:17:54.410Z,524.58
2022-09-16T17:20:22.803Z,528.78
2022-09-16T17:22:50.977Z,498.42
2022-09-16T17:25:18.862Z,496.25
2022-09-16T17:27:47.482Z,492.30
2022-09-16T17:30:16.900Z,498.33
2022-09-16T17:32:45.338Z,505.33
2022-09-16T17:35:13.470Z,494.63
2022-09-16T17:37:42.384Z,486.33
2022-09-16T17:40:11.149Z,495.05
2022-09-16T17:42:39.510Z,478.67
2022-09-16T17:45:08.064Z,473.55
2022-09-16T17:47:36.241Z,476.45
2022-09-16T17:50:05.483Z,464.15
2022-09-16T17:52:33.779Z,469.25
2022-09-16T17:55:02.086Z,455.92
2022-09-16T17:57:33.154Z,453.00
2022-09-16T18:00:01.603Z,457.83
2022-09-16T18:02:29.873Z,441.25
2022-09-16T18:04:57.913Z,444.30
2022-09-16T18:07:26.156Z,446.55
2022-09-16T18:09:54.403Z,446.77
2022-09-16T18:12:22.574Z,441.70
2022-09-16T18:14:50.509Z,449.60
2022-09-16T18:17:18.854Z,439.75
2022-09-16T18:19:47.111Z,422.17
2022-09-16T18:22:14.863Z,426.38
2022-09-16T18:24:43.054Z,428.25
2022-09-16T18:27:11.936Z,434.38
2022-09-16T18:29:40.407Z,433.05
2022-09-16T18:32:09.091Z,417.00
2022-09-16T18:34:37.669Z,415.60
2022-09-16T18:37:05.967Z,420.88
2022-09-16T18:39:34.312Z,405.35
2022-09-16T18:42:02.563Z,411.42
2022-09-16T18:44:30.894Z,413.08
2022-09-16T18:47:00.043Z,405.63
2022-09-16T18:49:30.207Z,402.75
2022-09-16T18:51:58.553Z,391.83
2022-09-16T18:54:29.262Z,389.77
2022-09-16T18:57:00.298Z,395.13
2022-09-16T18:59:31.543Z,388.10
2022-09-16T19:02:03.945Z,385.45
2022-09-16T19:04:38.439Z,399.02
2022-09-16T19:07:08.558Z,405.88
2022-09-16T19:09:39.960Z,408.88
2022-09-16T19:12:13.394Z,390.85
2022-09-16T19:14:41.902Z,389.10
2022-09-16T19:17:10.590Z,387.80
2022-09-16T19:19:38.971Z,391.65
2022-09-16T19:22:07.118Z,373.17
2022-09-16T19:24:35.238Z,410.23
2022-09-16T19:27:03.776Z,389.90
2022-09-16T19:29:32.811Z,390.65
2022-09-16T19:32:01.364Z,398.75
2022-09-16T19:34:29.742Z,384.35
2022-09-16T19:36:57.925Z,397.27
2022-09-16T19:39:27.265Z,395.60
2022-09-16T19:41:55.740Z,379.23
2022-09-16T19:44:24.003Z,395.65
2022-09-16T19:46:52.494Z,490.33
2022-09-16T19:49:23.033Z,371.40
2022-09-16T19:51:53.352Z,393.90
2022-09-16T19:54:24.260Z,371.90
2022-09-16T19:56:52.664Z,368.98
2022-09-16T19:59:20.923Z,371.95
2022-09-16T20:01:49.508Z,379.40
2022-09-16T20:04:21.274Z,377.98
2022-09-16T20:06:50.129Z,372.17
2022-09-16T20:09:19.872Z,362.45
2022-09-16T20:11:49.250Z,363.52
2022-09-16T20:14:20.389Z,351.95
2022-09-16T20:16:51.957Z,358.23
2022-09-16T20:19:20.685Z,372.83
2022-09-16T20:21:49.176Z,350.63
2022-09-16T20:24:20.362Z,348.95
2022-09-16T20:26:50.712Z,348.90
2022-09-16T20:29:20.100Z,348.55
2022-09-16T20:31:50.765Z,344.58
2022-09-16T20:34:19.594Z,347.52
2022-09-16T20:36:47.789Z,345.75
2022-09-16T20:39:16.413Z,349.73
2022-09-16T20:41:45.861Z,356.95
2022-09-16T20:44:15.894Z,345.85
2022-09-16T20:46:44.707Z,335.42
2022-09-16T20:49:16.618Z,346.00
2022-09-16T20:51:45.118Z,339.85
2022-09-16T20:54:15.246Z,344.75
2022-09-16T20:56:47.243Z,374.45
2022-09-16T20:59:17.635Z,337.25
2022-09-16T21:01:46.565Z,358.33
2022-09-16T21:04:19.744Z,332.92
2022-09-16T21:06:48.102Z,345.80
2022-09-16T21:09:16.559Z,332.55
2022-09-16T21:11:45.321Z,352.38
2022-09-16T21:14:16.455Z,337.52
2022-09-16T21:16:46.133Z,348.35
2022-09-16T21:19:14.826Z,341.08
2022-09-16T21:21:46.557Z,336.23
2022-09-16T21:24:15.927Z,336.55
2022-09-16T21:26:44.415Z,334.17
2022-09-16T21:29:15.998Z,309.05
2022-09-16T21:31:44.415Z,315.48
2022-09-16T21:34:20.679Z,352.92
2022-09-16T21:36:50.223Z,341.77
2022-09-16T21:39:21.255Z,319.67
2022-09-16T21:41:49.642Z,334.35
2022-09-16T21:44:19.171Z,313.02
2022-09-16T21:46:48.152Z,318.77
2022-09-16T21:49:23.062Z,315.05
2022-09-16T21:51:57.352Z,324.90
2022-09-16T21:54:26.825Z,524.40
2022-09-16T21:56:55.245Z,308.45
2022-09-16T21:59:23.761Z,305.48
2022-09-16T22:01:52.117Z,310.67
2022-09-16T22:04:23.665Z,320.42
2022-09-16T22:06:54.853Z,304.20
2022-09-16T22:09:23.315Z,319.17
2022-09-16T22:11:51.673Z,316.63
2022-09-16T22:14:19.876Z,315.52
2022-09-16T22:16:48.124Z,304.75
2022-09-16T22:19:18.443Z,317.10
2022-09-16T22:21:50.073Z,298.73
2022-09-16T22:24:22.230Z,303.05
2022-09-16T22:26:51.569Z,306.45
2022-09-16T22:29:20.004Z,304.80
2022-09-16T22:31:48.726Z,300.38
2022-09-16T22:34:17.199Z,313.40
2022-09-16T22:36:45.566Z,314.77
2022-09-16T22:39:16.266Z,311.05
2022-09-16T22:41:45.091Z,306.17
2022-09-16T22:44:14.158Z,291.02
2022-09-16T22:46:47.556Z,302.08
2022-09-16T22:49:16.591Z,312.38
2022-09-16T22:51:45.264Z,294.73
2022-09-16T22:54:14.348Z,285.00
2022-09-16T22:56:43.955Z,300.10
2022-09-16T22:59:20.653Z,292.35
2022-09-16T23:01:49.284Z,303.67
2022-09-16T23:04:17.630Z,289.52
2022-09-16T23:06:46.824Z,300.67
2022-09-16T23:09:15.543Z,298.63
2022-09-16T23:11:43.843Z,302.10
2022-09-16T23:14:15.649Z,294.92
2022-09-16T23:16:44.047Z,301.90
2022-09-16T23:19:12.594Z,274.50
2022-09-16T23:21:41.139Z,297.30
2022-09-16T23:24:15.420Z,285.80
2022-09-16T23:26:44.651Z,288.23
2022-09-16T23:29:14.444Z,282.98
2022-09-16T23:31:44.863Z,283.55
2022-09-16T23:34:20.051Z,285.77
2022-09-16T23:36:48.965Z,288.10
2022-09-16T23:39:17.619Z,278.08
2022-09-16T23:41:46.030Z,293.83
2022-09-16T23:44:15.885Z,291.95
2022-09-16T23:46:44.944Z,253.85
2022-09-16T23:49:13.833Z,281.85
2022-09-16T23:51:42.075Z,294.88
2022-09-16T23:54:10.307Z,293.38
2022-09-16T23:56:38.918Z,290.75
2022-09-16T23:59:07.330Z,282.75
